Weather at Farnborough Airport

Public forecast

Using degrees Celsius for public forecast. Weather courtesy of forecast.io.

Current aviation weather report (METAR) for Farnborough Airport

Retrieved 2021/05/14 19:20 UTC (22 minutes ago):

EGLF 141920Z AUTO 17006KT 9999 SCT023/// BKN033/// 11/07 Q1008

Aviation forecast (TAF) for Farnborough Airport

Forecast is more than 12 hours old.

Retrieved 2016/04/18 18:00 UTC (5 years ago):

TAF EGLF 181658Z 1818/1821 26008KT 9999 BKN040